sensor_id;sensor_type;location;lat;lon;timestamp;pressure;altitude;pressure_sealevel;temperature;humidity
74578;BME280;63173;49.086;33.418;2023-04-03T00:01:01;99548.00;;;8.04;92.42
74578;BME280;63173;49.086;33.418;2023-04-03T00:03:27;99538.84;;;8.00;91.09
74578;BME280;63173;49.086;33.418;2023-04-03T00:05:53;99542.22;;;8.10;91.08
74578;BME280;63173;49.086;33.418;2023-04-03T00:08:20;99534.28;;;8.19;89.99
74578;BME280;63173;49.086;33.418;2023-04-03T00:10:45;99538.00;;;8.04;90.51
74578;BME280;63173;49.086;33.418;2023-04-03T00:13:11;99535.22;;;8.09;91.44
74578;BME280;63173;49.086;33.418;2023-04-03T00:15:37;99526.81;;;8.11;90.47
74578;BME280;63173;49.086;33.418;2023-04-03T00:18:04;99528.84;;;8.00;89.65
74578;BME280;63173;49.086;33.418;2023-04-03T00:20:29;99528.88;;;7.72;90.88
74578;BME280;63173;49.086;33.418;2023-04-03T00:22:55;99526.41;;;7.75;92.48
74578;BME280;63173;49.086;33.418;2023-04-03T00:25:21;99520.94;;;7.80;92.35
74578;BME280;63173;49.086;33.418;2023-04-03T00:27:46;99517.94;;;7.82;92.72
74578;BME280;63173;49.086;33.418;2023-04-03T00:30:15;99523.03;;;7.88;91.51
74578;BME280;63173;49.086;33.418;2023-04-03T00:32:41;99519.16;;;7.71;92.53
74578;BME280;63173;49.086;33.418;2023-04-03T00:35:07;99521.41;;;7.63;92.38
74578;BME280;63173;49.086;33.418;2023-04-03T00:37:33;99520.94;;;7.80;92.26
74578;BME280;63173;49.086;33.418;2023-04-03T00:39:58;99511.09;;;7.66;92.24
74578;BME280;63173;49.086;33.418;2023-04-03T00:42:24;99513.66;;;7.81;91.59
74578;BME280;63173;49.086;33.418;2023-04-03T00:47:21;99512.78;;;7.85;90.94
74578;BME280;63173;49.086;33.418;2023-04-03T00:49:48;99516.13;;;7.77;92.22
74578;BME280;63173;49.086;33.418;2023-04-03T00:52:16;99518.66;;;7.92;92.07
74578;BME280;63173;49.086;33.418;2023-04-03T00:54:43;99518.31;;;7.75;91.73
74578;BME280;63173;49.086;33.418;2023-04-03T00:57:11;99513.66;;;8.04;90.69
74578;BME280;63173;49.086;33.418;2023-04-03T00:59:44;99512.44;;;8.15;90.73
74578;BME280;63173;49.086;33.418;2023-04-03T01:02:11;99509.91;;;8.00;91.48
74578;BME280;63173;49.086;33.418;2023-04-03T01:04:38;99505.94;;;7.93;90.30
74578;BME280;63173;49.086;33.418;2023-04-03T01:07:08;99508.16;;;7.86;92.10
74578;BME280;63173;49.086;33.418;2023-04-03T01:09:35;99506.09;;;8.01;91.35
74578;BME280;63173;49.086;33.418;2023-04-03T01:12:31;99492.06;;;7.99;91.89
74578;BME280;63173;49.086;33.418;2023-04-03T01:15:04;99505.19;;;8.11;91.71
74578;BME280;63173;49.086;33.418;2023-04-03T01:25:28;99496.22;;;7.92;92.43
74578;BME280;63173;49.086;33.418;2023-04-03T01:27:54;99491.66;;;8.11;92.22
74578;BME280;63173;49.086;33.418;2023-04-03T01:30:24;99489.75;;;8.11;92.57
74578;BME280;63173;49.086;33.418;2023-04-03T01:32:53;99492.88;;;7.76;93.12
74578;BME280;63173;49.086;33.418;2023-04-03T01:35:18;99487.34;;;7.86;93.22
74578;BME280;63173;49.086;33.418;2023-04-03T01:37:44;99481.78;;;7.78;93.62
74578;BME280;63173;49.086;33.418;2023-04-03T01:40:10;99485.59;;;7.53;94.11
74578;BME280;63173;49.086;33.418;2023-04-03T01:42:35;99481.59;;;7.69;94.79
74578;BME280;63173;49.086;33.418;2023-04-03T01:45:01;99479.88;;;7.78;93.69
74578;BME280;63173;49.086;33.418;2023-04-03T01:47:26;99468.84;;;7.98;93.59
74578;BME280;63173;49.086;33.418;2023-04-03T01:49:51;99480.50;;;7.94;92.08
74578;BME280;63173;49.086;33.418;2023-04-03T01:52:17;99477.81;;;7.94;92.99
74578;BME280;63173;49.086;33.418;2023-04-03T01:54:42;99467.44;;;8.01;92.31
74578;BME280;63173;49.086;33.418;2023-04-03T01:57:08;99471.50;;;7.80;93.77
74578;BME280;63173;49.086;33.418;2023-04-03T01:59:33;99470.81;;;7.93;93.41
74578;BME280;63173;49.086;33.418;2023-04-03T02:01:58;99470.38;;;8.04;92.48
74578;BME280;63173;49.086;33.418;2023-04-03T02:04:24;99470.13;;;8.01;91.59
74578;BME280;63173;49.086;33.418;2023-04-03T02:06:49;99470.28;;;7.91;92.76
74578;BME280;63173;49.086;33.418;2023-04-03T02:09:15;99466.84;;;7.85;92.64
74578;BME280;63173;49.086;33.418;2023-04-03T02:11:40;99464.38;;;8.07;92.10
74578;BME280;63173;49.086;33.418;2023-04-03T02:14:06;99464.13;;;7.85;92.64
74578;BME280;63173;49.086;33.418;2023-04-03T02:16:31;99467.00;;;7.94;91.86
74578;BME280;63173;49.086;33.418;2023-04-03T02:18:57;99466.88;;;8.04;92.63
74578;BME280;63173;49.086;33.418;2023-04-03T02:21:23;99467.28;;;7.92;91.73
74578;BME280;63173;49.086;33.418;2023-04-03T02:23:48;99467.78;;;7.71;93.59
74578;BME280;63173;49.086;33.418;2023-04-03T02:26:15;99466.75;;;7.90;93.28
74578;BME280;63173;49.086;33.418;2023-04-03T02:28:41;99466.75;;;7.90;93.23
74578;BME280;63173;49.086;33.418;2023-04-03T02:31:07;99457.13;;;8.03;92.97
74578;BME280;63173;49.086;33.418;2023-04-03T02:33:34;99461.16;;;7.82;93.81
74578;BME280;63173;49.086;33.418;2023-04-03T02:36:01;99458.75;;;8.04;92.37
74578;BME280;63173;49.086;33.418;2023-04-03T02:38:26;99460.75;;;7.93;92.05
74578;BME280;63173;49.086;33.418;2023-04-03T02:40:52;99463.34;;;8.03;92.95
74578;BME280;63173;49.086;33.418;2023-04-03T02:43:18;99457.94;;;8.03;92.08
74578;BME280;63173;49.086;33.418;2023-04-03T02:45:43;99456.06;;;8.04;92.32
74578;BME280;63173;49.086;33.418;2023-04-03T02:48:09;99459.69;;;7.94;91.77
74578;BME280;63173;49.086;33.418;2023-04-03T02:50:34;99458.13;;;7.88;92.64
74578;BME280;63173;49.086;33.418;2023-04-03T02:53:00;99460.53;;;7.90;93.77
74578;BME280;63173;49.086;33.418;2023-04-03T02:55:25;99455.69;;;8.10;93.22
74578;BME280;63173;49.086;33.418;2023-04-03T02:57:51;99456.50;;;8.11;92.26
74578;BME280;63173;49.086;33.418;2023-04-03T03:00:17;99458.66;;;7.90;92.18
74578;BME280;63173;49.086;33.418;2023-04-03T03:02:42;99461.53;;;7.75;93.59
74578;BME280;63173;49.086;33.418;2023-04-03T03:05:08;99459.44;;;7.72;94.84
74578;BME280;63173;49.086;33.418;2023-04-03T03:07:33;99461.25;;;8.00;93.24
74578;BME280;63173;49.086;33.418;2023-04-03T03:09:59;99455.41;;;8.12;92.83
74578;BME280;63173;49.086;33.418;2023-04-03T03:12:24;99461.25;;;8.00;92.65
74578;BME280;63173;49.086;33.418;2023-04-03T03:14:50;99455.72;;;7.87;92.93
74578;BME280;63173;49.086;33.418;2023-04-03T03:17:16;99464.47;;;8.02;92.17
74578;BME280;63173;49.086;33.418;2023-04-03T03:19:42;99458.06;;;7.93;92.29
74578;BME280;63173;49.086;33.418;2023-04-03T03:22:08;99459.72;;;8.13;92.20
74578;BME280;63173;49.086;33.418;2023-04-03T03:24:34;99457.53;;;8.15;91.23
74578;BME280;63173;49.086;33.418;2023-04-03T03:26:59;99462.53;;;8.03;92.05
74578;BME280;63173;49.086;33.418;2023-04-03T03:29:25;99459.69;;;7.94;92.38
74578;BME280;63173;49.086;33.418;2023-04-03T03:31:51;99459.66;;;7.76;93.09
74578;BME280;63173;49.086;33.418;2023-04-03T03:34:17;99454.56;;;7.69;93.31
74578;BME280;63173;49.086;33.418;2023-04-03T03:36:42;99461.81;;;7.97;93.14
74578;BME280;63173;49.086;33.418;2023-04-03T03:39:08;99453.66;;;8.02;93.23
74578;BME280;63173;49.086;33.418;2023-04-03T03:41:33;99452.13;;;8.15;92.16
74578;BME280;63173;49.086;33.418;2023-04-03T03:43:59;99453.50;;;8.12;91.19
74578;BME280;63173;49.086;33.418;2023-04-03T03:46:24;99450.66;;;8.04;92.00
74578;BME280;63173;49.086;33.418;2023-04-03T03:48:50;99450.09;;;7.83;92.65
74578;BME280;63173;49.086;33.418;2023-04-03T03:51:15;99452.94;;;7.92;93.46
74578;BME280;63173;49.086;33.418;2023-04-03T03:53:40;99452.47;;;7.66;93.03
74578;BME280;63173;49.086;33.418;2023-04-03T03:56:06;99450.50;;;7.72;94.11
74578;BME280;63173;49.086;33.418;2023-04-03T03:58:32;99455.53;;;7.78;94.57
74578;BME280;63173;49.086;33.418;2023-04-03T04:01:02;99450.41;;;8.00;93.48
74578;BME280;63173;49.086;33.418;2023-04-03T04:03:28;99451.63;;;7.89;93.17
74578;BME280;63173;49.086;33.418;2023-04-03T04:05:53;99457.28;;;7.93;93.73
74578;BME280;63173;49.086;33.418;2023-04-03T04:08:20;99455.91;;;8.14;92.21
74578;BME280;63173;49.086;33.418;2023-04-03T04:10:45;99459.13;;;8.16;92.73
74578;BME280;63173;49.086;33.418;2023-04-03T04:13:11;99446.41;;;8.16;91.14
74578;BME280;63173;49.086;33.418;2023-04-03T04:15:36;99450.28;;;8.10;92.72
74578;BME280;63173;49.086;33.418;2023-04-03T04:18:01;99454.31;;;8.13;92.52
74578;BME280;63173;49.086;33.418;2023-04-03T04:20:27;99446.00;;;7.86;93.13
74578;BME280;63173;49.086;33.418;2023-04-03T04:22:52;99447.53;;;8.15;92.76
74578;BME280;63173;49.086;33.418;2023-04-03T04:25:18;99453.00;;;8.29;92.21
74578;BME280;63173;49.086;33.418;2023-04-03T04:27:43;99448.31;;;8.16;92.87
74578;BME280;63173;49.086;33.418;2023-04-03T04:30:09;99452.72;;;8.12;92.10
74578;BME280;63173;49.086;33.418;2023-04-03T04:32:35;99453.91;;;8.24;92.56
74578;BME280;63173;49.086;33.418;2023-04-03T04:35:01;99451.16;;;8.06;93.91
74578;BME280;63173;49.086;33.418;2023-04-03T04:37:26;99453.28;;;8.09;92.74
74578;BME280;63173;49.086;33.418;2023-04-03T04:39:52;99454.13;;;8.28;93.02
74578;BME280;63173;49.086;33.418;2023-04-03T04:42:17;99455.50;;;8.25;93.13
74578;BME280;63173;49.086;33.418;2023-04-03T04:44:43;99457.75;;;8.18;91.82
74578;BME280;63173;49.086;33.418;2023-04-03T04:47:08;99444.72;;;8.20;92.25
74578;BME280;63173;49.086;33.418;2023-04-03T04:49:34;99453.59;;;8.26;91.83
74578;BME280;63173;49.086;33.418;2023-04-03T04:51:59;99455.34;;;7.93;92.79
74578;BME280;63173;49.086;33.418;2023-04-03T04:54:25;99452.81;;;7.83;93.52
74578;BME280;63173;49.086;33.418;2023-04-03T04:56:50;99447.03;;;7.90;94.55
74578;BME280;63173;49.086;33.418;2023-04-03T04:59:16;99450.50;;;8.14;93.71
74578;BME280;63173;49.086;33.418;2023-04-03T05:01:41;99451.19;;;7.82;94.61
74578;BME280;63173;49.086;33.418;2023-04-03T05:04:07;99456.66;;;7.77;95.32
74578;BME280;63173;49.086;33.418;2023-04-03T05:06:32;99457.53;;;7.91;94.30
74578;BME280;63173;49.086;33.418;2023-04-03T05:08:58;99459.25;;;7.87;94.67
74578;BME280;63173;49.086;33.418;2023-04-03T05:11:24;99458.34;;;8.15;93.22
74578;BME280;63173;49.086;33.418;2023-04-03T05:13:49;99456.88;;;8.04;93.09
74578;BME280;63173;49.086;33.418;2023-04-03T05:16:15;99458.97;;;8.07;93.37
74578;BME280;63173;49.086;33.418;2023-04-03T05:18:40;99463.22;;;8.13;93.91
74578;BME280;63173;49.086;33.418;2023-04-03T05:21:05;99460.34;;;8.05;92.68
74578;BME280;63173;49.086;33.418;2023-04-03T05:23:31;99460.34;;;8.05;93.24
74578;BME280;63173;49.086;33.418;2023-04-03T05:25:56;99469.38;;;8.19;93.06
74578;BME280;63173;49.086;33.418;2023-04-03T05:28:22;99472.41;;;7.94;92.49
74578;BME280;63173;49.086;33.418;2023-04-03T05:30:54;99472.59;;;8.21;92.94
74578;BME280;63173;49.086;33.418;2023-04-03T05:33:20;99472.13;;;8.37;91.93
74578;BME280;63173;49.086;33.418;2023-04-03T05:35:46;99477.22;;;8.39;90.62
74578;BME280;63173;49.086;33.418;2023-04-03T05:38:11;99479.72;;;8.35;91.20
74578;BME280;63173;49.086;33.418;2023-04-03T05:40:37;99484.06;;;8.55;91.53
74578;BME280;63173;49.086;33.418;2023-04-03T05:43:03;99482.06;;;8.61;90.79
74578;BME280;63173;49.086;33.418;2023-04-03T05:45:28;99487.63;;;8.50;90.73
74578;BME280;63173;49.086;33.418;2023-04-03T05:47:54;99484.31;;;8.53;90.29
74578;BME280;63173;49.086;33.418;2023-04-03T05:50:20;99486.97;;;8.40;90.98
74578;BME280;63173;49.086;33.418;2023-04-03T05:52:46;99490.25;;;8.55;91.93
74578;BME280;63173;49.086;33.418;2023-04-03T05:55:13;99495.16;;;8.53;90.00
74578;BME280;63173;49.086;33.418;2023-04-03T05:57:40;99496.78;;;8.54;90.94
74578;BME280;63173;49.086;33.418;2023-04-03T06:00:07;99499.09;;;8.61;90.04
74578;BME280;63173;49.086;33.418;2023-04-03T06:02:38;99493.34;;;8.49;92.17
74578;BME280;63173;49.086;33.418;2023-04-03T06:05:03;99502.72;;;8.57;93.05
74578;BME280;63173;49.086;33.418;2023-04-03T06:07:29;99494.88;;;8.55;91.44
74578;BME280;63173;49.086;33.418;2023-04-03T06:09:56;99504.16;;;8.68;91.27
74578;BME280;63173;49.086;33.418;2023-04-03T06:12:22;99494.88;;;8.36;92.50
74578;BME280;63173;49.086;33.418;2023-04-03T06:14:48;99498.53;;;8.45;92.90
74578;BME280;63173;49.086;33.418;2023-04-03T06:17:15;99495.53;;;8.28;92.74
74578;BME280;63173;49.086;33.418;2023-04-03T06:19:41;99500.44;;;8.64;92.22
74578;BME280;63173;49.086;33.418;2023-04-03T06:22:06;99504.03;;;8.59;92.65
74578;BME280;63173;49.086;33.418;2023-04-03T06:24:32;99499.84;;;8.48;93.40
74578;BME280;63173;49.086;33.418;2023-04-03T06:26:58;99508.25;;;8.46;94.34
74578;BME280;63173;49.086;33.418;2023-04-03T06:29:24;99501.75;;;8.47;93.56
74578;BME280;63173;49.086;33.418;2023-04-03T06:31:50;99509.88;;;8.47;94.13
74578;BME280;63173;49.086;33.418;2023-04-03T06:34:16;99511.47;;;8.30;94.24
74578;BME280;63173;49.086;33.418;2023-04-03T06:36:42;99509.63;;;8.25;94.97
74578;BME280;63173;49.086;33.418;2023-04-03T06:39:12;99509.88;;;8.47;95.64
74578;BME280;63173;49.086;33.418;2023-04-03T06:41:38;99511.47;;;8.48;95.26
74578;BME280;63173;49.086;33.418;2023-04-03T06:44:04;99511.03;;;8.60;95.08
74578;BME280;63173;49.086;33.418;2023-04-03T06:46:30;99514.47;;;8.47;95.17
74578;BME280;63173;49.086;33.418;2023-04-03T06:48:55;99519.72;;;8.38;96.47
74578;BME280;63173;49.086;33.418;2023-04-03T06:51:26;99518.19;;;8.32;96.38
74578;BME280;63173;49.086;33.418;2023-04-03T06:53:56;99518.97;;;8.33;97.36
74578;BME280;63173;49.086;33.418;2023-04-03T06:56:22;99513.91;;;8.69;96.66
74578;BME280;63173;49.086;33.418;2023-04-03T06:58:48;99520.03;;;8.55;95.46
74578;BME280;63173;49.086;33.418;2023-04-03T07:01:15;99517.78;;;8.63;95.68
74578;BME280;63173;49.086;33.418;2023-04-03T07:03:41;99520.19;;;8.83;95.51
74578;BME280;63173;49.086;33.418;2023-04-03T07:06:08;99528.16;;;8.93;95.69
74578;BME280;63173;49.086;33.418;2023-04-03T07:08:34;99514.16;;;8.86;94.59
74578;BME280;63173;49.086;33.418;2023-04-03T07:11:00;99522.88;;;9.01;95.96
74578;BME280;63173;49.086;33.418;2023-04-03T07:13:26;99523.53;;;8.93;95.08
74578;BME280;63173;49.086;33.418;2023-04-03T07:15:52;99525.88;;;9.00;95.82
74578;BME280;63173;49.086;33.418;2023-04-03T07:18:17;99525.09;;;8.81;96.17
74578;BME280;63173;49.086;33.418;2023-04-03T07:20:43;99528.81;;;8.85;96.47
74578;BME280;63173;49.086;33.418;2023-04-03T07:23:09;99534.38;;;8.75;97.78
74578;BME280;63173;49.086;33.418;2023-04-03T07:25:35;99531.81;;;9.02;95.69
74578;BME280;63173;49.086;33.418;2023-04-03T07:28:01;99536.84;;;8.90;97.65
74578;BME280;63173;49.086;33.418;2023-04-03T07:30:27;99536.66;;;8.86;96.58
74578;BME280;63173;49.086;33.418;2023-04-03T07:32:52;99535.13;;;8.99;96.42
74578;BME280;63173;49.086;33.418;2023-04-03T07:35:18;99544.19;;;9.08;95.84
74578;BME280;63173;49.086;33.418;2023-04-03T07:37:44;99542.63;;;9.02;95.53
74578;BME280;63173;49.086;33.418;2023-04-03T07:40:09;99542.22;;;8.95;95.53
74578;BME280;63173;49.086;33.418;2023-04-03T07:42:35;99544.50;;;9.20;95.15
74578;BME280;63173;49.086;33.418;2023-04-03T07:45:02;99545.09;;;9.17;95.23
74578;BME280;63173;49.086;33.418;2023-04-03T07:47:28;99548.91;;;9.34;95.75
74578;BME280;63173;49.086;33.418;2023-04-03T07:49:53;99539.91;;;9.20;96.06
74578;BME280;63173;49.086;33.418;2023-04-03T07:52:19;99556.06;;;9.25;96.16
74578;BME280;63173;49.086;33.418;2023-04-03T07:54:44;99568.84;;;9.25;95.90
74578;BME280;63173;49.086;33.418;2023-04-03T07:57:10;99556.66;;;9.22;96.17
74578;BME280;63173;49.086;33.418;2023-04-03T07:59:35;99547.34;;;8.96;95.36
74578;BME280;63173;49.086;33.418;2023-04-03T08:02:01;99560.94;;;9.10;94.69
74578;BME280;63173;49.086;33.418;2023-04-03T08:04:26;99560.34;;;9.13;97.13
74578;BME280;63173;49.086;33.418;2023-04-03T08:06:52;99563.19;;;9.21;96.37
74578;BME280;63173;49.086;33.418;2023-04-03T08:09:18;99561.69;;;8.97;96.41
74578;BME280;63173;49.086;33.418;2023-04-03T08:11:44;99570.16;;;8.90;97.76
74578;BME280;63173;49.086;33.418;2023-04-03T08:14:10;99575.75;;;8.99;96.83
74578;BME280;63173;49.086;33.418;2023-04-03T08:16:40;99567.22;;;9.05;96.35
74578;BME280;63173;49.086;33.418;2023-04-03T08:19:06;99573.03;;;8.99;95.78
74578;BME280;63173;49.086;33.418;2023-04-03T08:21:32;99573.06;;;9.31;95.61
74578;BME280;63173;49.086;33.418;2023-04-03T08:23:58;99566.84;;;9.30;94.72
74578;BME280;63173;49.086;33.418;2023-04-03T08:26:23;99568.59;;;9.40;95.16
74578;BME280;63173;49.086;33.418;2023-04-03T08:28:49;99566.28;;;9.47;95.74
74578;BME280;63173;49.086;33.418;2023-04-03T08:31:17;99574.56;;;9.37;93.74
74578;BME280;63173;49.086;33.418;2023-04-03T08:33:44;99573.00;;;9.17;94.81
74578;BME280;63173;49.086;33.418;2023-04-03T08:36:19;99588.25;;;9.13;94.87
74578;BME280;63173;49.086;33.418;2023-04-03T08:38:46;99584.44;;;9.33;95.47
74578;BME280;63173;49.086;33.418;2023-04-03T08:41:32;99590.28;;;9.40;93.74
74578;BME280;63173;49.086;33.418;2023-04-03T08:46:38;99592.53;;;9.52;94.32
74578;BME280;63173;49.086;33.418;2023-04-03T08:49:21;99590.63;;;9.33;95.72
74578;BME280;63173;49.086;33.418;2023-04-03T08:51:49;99593.63;;;9.32;94.31
74578;BME280;63173;49.086;33.418;2023-04-03T08:54:30;99596.00;;;9.52;94.09
74578;BME280;63173;49.086;33.418;2023-04-03T08:56:57;99600.50;;;9.75;94.15
74578;BME280;63173;49.086;33.418;2023-04-03T08:59:28;99594.88;;;9.72;94.18
74578;BME280;63173;49.086;33.418;2023-04-03T09:01:56;99601.94;;;9.54;94.33
74578;BME280;63173;49.086;33.418;2023-04-03T09:04:22;99604.09;;;9.57;94.04
74578;BME280;63173;49.086;33.418;2023-04-03T09:06:58;99603.63;;;9.69;93.22
74578;BME280;63173;49.086;33.418;2023-04-03T09:09:40;99603.09;;;9.67;94.53
74578;BME280;63173;49.086;33.418;2023-04-03T09:14:51;99602.81;;;10.41;92.04
74578;BME280;63173;49.086;33.418;2023-04-03T09:20:21;99609.41;;;10.08;88.75
74578;BME280;63173;49.086;33.418;2023-04-03T09:22:51;99615.41;;;10.37;88.99
74578;BME280;63173;49.086;33.418;2023-04-03T09:25:30;99617.03;;;10.06;89.32
74578;BME280;63173;49.086;33.418;2023-04-03T09:27:59;99615.31;;;9.96;90.66
74578;BME280;63173;49.086;33.418;2023-04-03T09:30:25;99623.47;;;9.96;90.84
74578;BME280;63173;49.086;33.418;2023-04-03T09:32:53;99628.72;;;10.06;91.90
74578;BME280;63173;49.086;33.418;2023-04-03T09:40:45;99619.91;;;10.55;87.13
74578;BME280;63173;49.086;33.418;2023-04-03T09:45:43;99627.66;;;10.34;87.88
74578;BME280;63173;49.086;33.418;2023-04-03T09:48:17;99630.69;;;10.33;89.34
74578;BME280;63173;49.086;33.418;2023-04-03T09:53:39;99639.00;;;10.23;88.66
74578;BME280;63173;49.086;33.418;2023-04-03T09:58:44;99635.81;;;10.62;87.61
74578;BME280;63173;49.086;33.418;2023-04-03T10:04:15;99633.50;;;10.69;85.77
74578;BME280;63173;49.086;33.418;2023-04-03T10:07:35;99644.03;;;10.57;87.20
74578;BME280;63173;49.086;33.418;2023-04-03T10:10:22;99654.91;;;10.43;87.60
74578;BME280;63173;49.086;33.418;2023-04-03T10:13:14;99655.72;;;10.57;87.63
74578;BME280;63173;49.086;33.418;2023-04-03T10:18:32;99661.53;;;10.78;87.75
74578;BME280;63173;49.086;33.418;2023-04-03T10:21:13;99660.34;;;10.70;84.56
74578;BME280;63173;49.086;33.418;2023-04-03T10:24:27;99656.16;;;11.00;83.39
74578;BME280;63173;49.086;33.418;2023-04-03T10:27:39;99659.97;;;11.26;83.17
74578;BME280;63173;49.086;33.418;2023-04-03T10:44:26;99677.59;;;11.86;81.35
74578;BME280;63173;49.086;33.418;2023-04-03T10:47:04;99679.69;;;11.67;82.13
74578;BME280;63173;49.086;33.418;2023-04-03T10:49:47;99692.88;;;11.24;82.95
74578;BME280;63173;49.086;33.418;2023-04-03T10:57:16;99696.66;;;10.88;82.85
74578;BME280;63173;49.086;33.418;2023-04-03T10:59:49;99709.22;;;10.97;83.34
74578;BME280;63173;49.086;33.418;2023-04-03T11:02:50;99695.31;;;11.26;82.72
74578;BME280;63173;49.086;33.418;2023-04-03T11:05:28;99703.19;;;10.73;84.79
74578;BME280;63173;49.086;33.418;2023-04-03T11:08:02;99705.06;;;10.32;85.40
74578;BME280;63173;49.086;33.418;2023-04-03T11:10:44;99712.06;;;10.65;83.44
74578;BME280;63173;49.086;33.418;2023-04-03T11:13:14;99713.34;;;10.40;84.60
74578;BME280;63173;49.086;33.418;2023-04-03T11:15:43;99707.22;;;10.62;83.85
74578;BME280;63173;49.086;33.418;2023-04-03T11:21:26;99715.84;;;10.51;83.36
74578;BME280;63173;49.086;33.418;2023-04-03T11:23:56;99720.28;;;10.60;85.84
74578;BME280;63173;49.086;33.418;2023-04-03T11:26:27;99721.72;;;10.58;85.61
74578;BME280;63173;49.086;33.418;2023-04-03T11:29:18;99718.19;;;10.71;85.08
74578;BME280;63173;49.086;33.418;2023-04-03T11:36:58;99736.28;;;10.75;83.34
74578;BME280;63173;49.086;33.418;2023-04-03T11:39:29;99741.03;;;10.97;83.93
74578;BME280;63173;49.086;33.418;2023-04-03T11:41:55;99739.19;;;10.52;86.24
74578;BME280;63173;49.086;33.418;2023-04-03T11:44:38;99740.03;;;10.01;86.47
74578;BME280;63173;49.086;33.418;2023-04-03T11:47:06;99746.06;;;9.80;89.08
74578;BME280;63173;49.086;33.418;2023-04-03T11:49:52;99746.38;;;9.78;89.24
74578;BME280;63173;49.086;33.418;2023-04-03T12:05:56;99761.81;;;10.15;89.81
74578;BME280;63173;49.086;33.418;2023-04-03T12:08:36;99761.75;;;10.20;89.47
74578;BME280;63173;49.086;33.418;2023-04-03T12:13:37;99765.25;;;10.20;90.91
74578;BME280;63173;49.086;33.418;2023-04-03T12:16:05;99765.13;;;10.12;91.92
74578;BME280;63173;49.086;33.418;2023-04-03T12:21:20;99774.19;;;10.21;91.34
74578;BME280;63173;49.086;33.418;2023-04-03T12:29:17;99776.25;;;10.29;89.34
74578;BME280;63173;49.086;33.418;2023-04-03T12:45:20;99779.66;;;9.65;92.96
74578;BME280;63173;49.086;33.418;2023-04-03T12:47:48;99784.91;;;9.38;95.04
74578;BME280;63173;49.086;33.418;2023-04-03T12:52:50;99788.75;;;9.13;96.72
74578;BME280;63173;49.086;33.418;2023-04-03T12:55:19;99796.31;;;9.35;96.61
74578;BME280;63173;49.086;33.418;2023-04-03T12:57:45;99799.34;;;9.10;98.19
74578;BME280;63173;49.086;33.418;2023-04-03T13:00:31;99799.91;;;9.07;97.46
74578;BME280;63173;49.086;33.418;2023-04-03T13:02:59;99801.69;;;9.16;98.64
74578;BME280;63173;49.086;33.418;2023-04-03T13:05:25;99798.53;;;9.33;97.14
74578;BME280;63173;49.086;33.418;2023-04-03T13:07:59;99798.53;;;9.33;97.36
74578;BME280;63173;49.086;33.418;2023-04-03T13:10:25;99792.66;;;9.44;98.88
74578;BME280;63173;49.086;33.418;2023-04-03T13:12:58;99797.41;;;9.34;97.11
74578;BME280;63173;49.086;33.418;2023-04-03T13:15:42;99793.91;;;9.52;96.03
74578;BME280;63173;49.086;33.418;2023-04-03T13:20:53;99805.34;;;9.49;96.15
74578;BME280;63173;49.086;33.418;2023-04-03T13:23:21;99797.13;;;9.35;97.38
74578;BME280;63173;49.086;33.418;2023-04-03T13:25:49;99801.09;;;9.43;97.77
74578;BME280;63173;49.086;33.418;2023-04-03T13:28:20;99806.28;;;9.39;96.41
74578;BME280;63173;49.086;33.418;2023-04-03T13:31:02;99813.16;;;9.56;95.13
74578;BME280;63173;49.086;33.418;2023-04-03T13:33:31;99815.03;;;9.55;97.36
74578;BME280;63173;49.086;33.418;2023-04-03T13:38:31;99817.97;;;9.59;96.27
74578;BME280;63173;49.086;33.418;2023-04-03T13:41:01;99828.16;;;9.48;96.43
74578;BME280;63173;49.086;33.418;2023-04-03T13:43:31;99827.97;;;9.39;97.76
74578;BME280;63173;49.086;33.418;2023-04-03T13:48:41;99828.34;;;9.33;95.08
74578;BME280;63173;49.086;33.418;2023-04-03T13:51:19;99826.41;;;9.33;96.94
74578;BME280;63173;49.086;33.418;2023-04-03T13:57:13;99836.50;;;9.28;96.84
74578;BME280;63173;49.086;33.418;2023-04-03T13:59:39;99842.97;;;9.32;95.22
74578;BME280;63173;49.086;33.418;2023-04-03T14:02:33;99844.19;;;9.21;96.33
74578;BME280;63173;49.086;33.418;2023-04-03T14:05:00;99853.94;;;8.98;96.98
74578;BME280;63173;49.086;33.418;2023-04-03T14:07:28;99849.72;;;9.11;98.34
74578;BME280;63173;49.086;33.418;2023-04-03T14:09:55;99857.16;;;9.24;97.20
74578;BME280;63173;49.086;33.418;2023-04-03T14:12:27;99861.38;;;9.11;96.93
74578;BME280;63173;49.086;33.418;2023-04-03T14:14:54;99858.59;;;8.93;97.02
74578;BME280;63173;49.086;33.418;2023-04-03T14:17:24;99860.31;;;9.07;97.52
74578;BME280;63173;49.086;33.418;2023-04-03T14:19:51;99854.69;;;9.04;98.44
74578;BME280;63173;49.086;33.418;2023-04-03T14:22:27;99859.47;;;9.12;97.25
74578;BME280;63173;49.086;33.418;2023-04-03T14:24:54;99876.34;;;9.04;98.88
74578;BME280;63173;49.086;33.418;2023-04-03T14:29:50;99871.13;;;9.36;99.33
74578;BME280;63173;49.086;33.418;2023-04-03T14:32:17;99874.53;;;9.23;98.35
74578;BME280;63173;49.086;33.418;2023-04-03T14:34:44;99870.72;;;9.24;98.00
74578;BME280;63173;49.086;33.418;2023-04-03T14:37:15;99877.94;;;9.05;99.82
74578;BME280;63173;49.086;33.418;2023-04-03T14:39:42;99876.13;;;9.24;100.00
74578;BME280;63173;49.086;33.418;2023-04-03T14:42:13;99883.84;;;9.35;99.68
74578;BME280;63173;49.086;33.418;2023-04-03T14:44:39;99886.25;;;9.42;99.15
74578;BME280;63173;49.086;33.418;2023-04-03T14:47:04;99880.00;;;9.41;99.69
74578;BME280;63173;49.086;33.418;2023-04-03T14:49:30;99876.09;;;9.29;99.54
74578;BME280;63173;49.086;33.418;2023-04-03T14:51:57;99888.63;;;9.20;99.50
74578;BME280;63173;49.086;33.418;2023-04-03T14:54:23;99887.53;;;9.44;99.97
74578;BME280;63173;49.086;33.418;2023-04-03T14:56:54;99888.47;;;9.35;99.99
74578;BME280;63173;49.086;33.418;2023-04-03T14:59:21;99893.41;;;9.33;99.55
74578;BME280;63173;49.086;33.418;2023-04-03T15:01:47;99890.63;;;9.38;99.15
74578;BME280;63173;49.086;33.418;2023-04-03T15:04:18;99898.81;;;9.33;98.25
74578;BME280;63173;49.086;33.418;2023-04-03T15:06:44;99903.81;;;9.21;98.30